^^
Grace C. Lehan Memorial Weather Station Historical Data
Daily Summary for May 23, 2021 Units:  Metric    English   Both
Daily Weekly Monthly Yearly
  High: Low: Average:
Temperature: 19.8 °C 11.6 °C 14.6 °C
Dew Point: 13.3 °C 9.9 °C 11.4 °C
Humidity: 90.9% 63% 82%
Wind Speed: 4.2km/h 0km/h 0.6km/h
Wind Gust: 16.1km/h - -
Wind- - WNW
Pressure: 1018.8 hPa 1011.4 hPa -
Precipitation: 0 mm    
 
 
Tabular Data for May 23, 2021
Time Temperature Dew Point Pressure Wind Wind Speed Wind Gust Humidity Rainfall Rate (Hourly) solar
00:04 14.9 °C 12.3 °C 1011.4 hPa West 2.4 km/h 4.8 km/h 84.5% 0 mm 0 W/m2
00:09 14.8 °C 12.2 °C 1011.4 hPa West 0.8 km/h 9.7 km/h 84% 0 mm 0 W/m2
00:14 14.8 °C 12.2 °C 1011.7 hPa WNW 3.2 km/h 14.5 km/h 84.3% 0 mm 0 W/m2
00:19 14.8 °C 12.1 °C 1011.7 hPa WNW 0.2 km/h 14.5 km/h 84% 0 mm 0 W/m2
00:24 14.8 °C 12.1 °C 1011.7 hPa WNW 0.3 km/h 14.5 km/h 84% 0 mm 0 W/m2
00:29 14.8 °C 12.2 °C 1011.7 hPa WNW 0.2 km/h 14.5 km/h 84.3% 0 mm 0 W/m2
00:34 14.8 °C 12.1 °C 1012.1 hPa West 0.8 km/h 14.5 km/h 84% 0 mm 0 W/m2
00:39 14.7 °C 12.1 °C 1012.1 hPa West 0.6 km/h 9.7 km/h 84% 0 mm 0 W/m2
00:44 14.7 °C 12.1 °C 1012.1 hPa West 0.3 km/h 9.7 km/h 84% 0 mm 0 W/m2
00:49 14.7 °C 12.1 °C 1012.1 hPa West 0.2 km/h 9.7 km/h 84% 0 mm 0 W/m2
00:54 14.7 °C 12.1 °C 1012.1 hPa West 0.3 km/h 9.7 km/h 84% 0 mm 0 W/m2
00:59 14.7 °C 12 °C 1012.1 hPa Calm   9.7 km/h 84% 0 mm 0 W/m2
01:04 14.7 °C 12 °C 1012.1 hPa West 0.3 km/h 9.7 km/h 84% 0 mm 0 W/m2
01:07 14.7 °C 12 °C 1012.1 hPa Calm   4.8 km/h 84% 0 mm 0 W/m2
01:30 14.5 °C 11.8 °C 1012.4 hPa Calm   8 km/h 84% 0 mm 0 W/m2
02:00 14.3 °C 11.7 °C 1012.8 hPa WNW 1.6 km/h 9.7 km/h 84% 0 mm 0 W/m2
03:00 14 °C 11.2 °C 1013.4 hPa WNW 1.6 km/h 11.3 km/h 83% 0 mm 0 W/m2
03:30 13.7 °C 10.9 °C 1014.1 hPa WNW 1.6 km/h 11.3 km/h 83% 0 mm 0 W/m2
04:04 13.5 °C 10.7 °C 1014.4 hPa Calm   1.6 km/h 83% 0 mm 0 W/m2
04:09 13.4 °C 10.6 °C 1014.8 hPa Calm   1.6 km/h 83% 0 mm 0 W/m2
04:14 13.4 °C 10.6 °C 1014.8 hPa Calm   1.6 km/h 83% 0 mm 0 W/m2
04:19 13.3 °C 10.6 °C 1014.8 hPa Calm   1.6 km/h 83.3% 0 mm 0 W/m2
04:24 13.3 °C 10.6 °C 1014.8 hPa Calm   1.6 km/h 84% 0 mm 0 W/m2
04:29 13.2 °C 10.6 °C 1015.1 hPa Calm   1.6 km/h 84.1% 0 mm 0 W/m2
04:34 13.1 °C 10.6 °C 1015.1 hPa Calm   1.6 km/h 85% 0 mm 0 W/m2
04:39 13 °C 10.6 °C 1015.1 hPa Calm     85.4% 0 mm 0 W/m2
04:44 12.9 °C 10.6 °C 1015.5 hPa Calm     86% 0 mm 0 W/m2
04:49 12.8 °C 10.5 °C 1015.5 hPa Calm     86% 0 mm 0 W/m2
04:54 12.7 °C 10.4 °C 1015.5 hPa Calm     86.2% 0 mm 0 W/m2
04:59 12.6 °C 10.4 °C 1015.5 hPa Calm     87% 0 mm 0 W/m2
05:04 12.5 °C 10.4 °C 1015.8 hPa Calm     87% 0 mm 0 W/m2
05:09 12.4 °C 10.3 °C 1015.8 hPa Calm     87.4% 0 mm 0 W/m2
05:14 12.3 °C 10.3 °C 1015.8 hPa Calm     88% 0 mm 0 W/m2
05:19 12.2 °C 10.2 °C 1015.8 hPa Calm     88% 0 mm 0 W/m2
05:24 12.1 °C 10.1 °C 1015.8 hPa Calm   1.6 km/h 88% 0 mm 0 W/m2
05:29 11.9 °C 10.1 °C 1016.1 hPa Calm   1.6 km/h 88.3% 0 mm 0 W/m2
05:34 11.8 °C 10.2 °C 1016.1 hPa NW 0.2 km/h 3.2 km/h 89.4% 0 mm 0 W/m2
05:39 11.8 °C 10.1 °C 1016.1 hPa NW 0.3 km/h 4.8 km/h 89.1% 0 mm 0 W/m2
05:44 11.7 °C 10 °C 1016.1 hPa NW 1.4 km/h 6.4 km/h 89% 0 mm 0 W/m2
05:49 11.7 °C 9.9 °C 1016.5 hPa Calm   6.4 km/h 89.3% 0 mm 5 W/m2
05:54 11.7 °C 10.1 °C 1016.5 hPa Calm   6.4 km/h 90% 0 mm 7 W/m2
05:59 11.6 °C 10.1 °C 1016.5 hPa Calm   6.4 km/h 90% 0 mm 12 W/m2
06:04 11.6 °C 10.1 °C 1016.8 hPa Calm   6.4 km/h 90% 0 mm 18 W/m2
06:09 11.6 °C 10.1 °C 1016.8 hPa Calm     90% 0 mm 19 W/m2
06:14 11.6 °C 10.1 °C 1016.8 hPa Calm     90% 0 mm 19 W/m2
06:19 11.7 °C 10.1 °C 1017.2 hPa Calm   1.6 km/h 90% 0 mm 21 W/m2
06:24 11.8 °C 10.4 °C 1017.2 hPa NW 0.6 km/h 4.8 km/h 90.9% 0 mm 23 W/m2
06:29 11.9 °C 10.3 °C 1017.2 hPa Calm   4.8 km/h 90% 0 mm 32 W/m2
06:34 12.1 °C 10.5 °C 1017.5 hPa Calm   4.8 km/h 90% 0 mm 44 W/m2
06:39 12.2 °C 10.7 °C 1017.5 hPa Calm     90% 0 mm 49 W/m2
06:44 12.4 °C 10.8 °C 1017.5 hPa Calm     90% 0 mm 56 W/m2
06:49 12.8 °C 11.2 °C 1017.5 hPa NW 0.2 km/h 3.2 km/h 89.9% 0 mm 67 W/m2
06:54 13.3 °C 11.5 °C 1017.5 hPa NW 0.2 km/h 4.8 km/h 88.7% 0 mm 69 W/m2
06:59 13.9 °C 11.7 °C 1017.8 hPa Calm   4.8 km/h 86.7% 0 mm 70 W/m2
07:04 14.5 °C 11.9 °C 1017.8 hPa Calm   4.8 km/h 84.7% 0 mm 72 W/m2
07:09 15.1 °C 12.1 °C 1017.8 hPa NW 0.2 km/h 3.2 km/h 82.3% 0 mm 72 W/m2
07:14 15.6 °C 12 °C 1017.8 hPa NW 0.6 km/h 8 km/h 79.4% 0 mm 74 W/m2
07:19 16 °C 12.1 °C 1017.8 hPa NW 0.8 km/h 8 km/h 77.4% 0 mm 76 W/m2
07:24 16.3 °C 12.1 °C 1018.2 hPa NW 0.3 km/h 8 km/h 75.9% 0 mm 206 W/m2
07:29 16.6 °C 12.3 °C 1018.2 hPa NW 0.3 km/h 8 km/h 75.8% 0 mm 355 W/m2
07:34 16.8 °C 12.4 °C 1018.2 hPa WNW 0.6 km/h 8 km/h 75.2% 0 mm 371 W/m2
07:39 17.2 °C 12.3 °C 1018.2 hPa WNW 3.7 km/h 11.3 km/h 73.1% 0 mm 388 W/m2
07:44 17.3 °C 12.3 °C 1018.2 hPa NW 1 km/h 11.3 km/h 72.3% 0 mm 411 W/m2
07:49 17.6 °C 12.7 °C 1018.2 hPa NW 1 km/h 11.3 km/h 73% 0 mm 431 W/m2
07:54 17.7 °C 12.4 °C 1018.2 hPa WNW 2.9 km/h 14.5 km/h 71.1% 0 mm 448 W/m2
07:59 17.8 °C 12.3 °C 1018.2 hPa WNW 1.1 km/h 14.5 km/h 70% 0 mm 461 W/m2
08:04 17.9 °C 12.1 °C 1018.5 hPa WNW 1.1 km/h 4.8 km/h 68.5% 0 mm 478 W/m2
08:09 17.9 °C 12.2 °C 1018.5 hPa WNW 1.4 km/h 14.5 km/h 69.1% 0 mm 494 W/m2
08:14 18.1 °C 12.3 °C 1018.5 hPa West 1.8 km/h 14.5 km/h 69.3% 0 mm 512 W/m2
08:19 18.3 °C 12.7 °C 1018.5 hPa WNW 1.9 km/h 14.5 km/h 69.8% 0 mm 531 W/m2
08:24 18.6 °C 12.5 °C 1018.8 hPa WNW 1.6 km/h 14.5 km/h 67.7% 0 mm 548 W/m2
08:29 18.8 °C 12.9 °C 1018.8 hPa WNW 0.8 km/h 14.5 km/h 68.5% 0 mm 561 W/m2
08:34 19.1 °C 13.1 °C 1018.8 hPa NW 0.5 km/h 14.5 km/h 68.1% 0 mm 580 W/m2
08:39 19.3 °C 13.1 °C 1018.8 hPa WNW 0.5 km/h 6.4 km/h 67.4% 0 mm 598 W/m2
08:44 19.6 °C 13.3 °C 1018.8 hPa NW 0.2 km/h 6.4 km/h 66.8% 0 mm 613 W/m2
08:49 19.8 °C 12.7 °C 1018.8 hPa West 4 km/h 16.1 km/h 63.5% 0 mm 628 W/m2
08:54 19.7 °C 12.5 °C 1018.8 hPa WNW 4.2 km/h 16.1 km/h 63% 0 mm 640 W/m2
08:58 19.7 °C 12.6 °C 1018.8 hPa WNW 2.6 km/h 16.1 km/h 63.5% 0 mm 650 W/m2
Hartford County Weather
Compliments of Weather Underground - 2 mb